sensor_id;sensor_type;location;lat;lon;timestamp;P1;durP1;ratioP1;P2;durP2;ratioP2
59458;SDS011;45269;43.568;22.244;2022-12-29T00:01:08;145.60;;;95.95;;
59458;SDS011;45269;43.568;22.244;2022-12-29T00:03:33;161.88;;;113.90;;
59458;SDS011;45269;43.568;22.244;2022-12-29T00:05:59;164.55;;;115.22;;
59458;SDS011;45269;43.568;22.244;2022-12-29T00:08:24;174.75;;;124.25;;
59458;SDS011;45269;43.568;22.244;2022-12-29T00:13:29;164.55;;;113.43;;
59458;SDS011;45269;43.568;22.244;2022-12-29T00:16:13;161.98;;;114.05;;
59458;SDS011;45269;43.568;22.244;2022-12-29T00:18:38;140.73;;;99.57;;
59458;SDS011;45269;43.568;22.244;2022-12-29T00:21:03;139.27;;;99.18;;
59458;SDS011;45269;43.568;22.244;2022-12-29T00:23:47;146.85;;;107.50;;
59458;SDS011;45269;43.568;22.244;2022-12-29T00:26:31;146.23;;;102.10;;
59458;SDS011;45269;43.568;22.244;2022-12-29T00:29:15;128.15;;;98.07;;
59458;SDS011;45269;43.568;22.244;2022-12-29T00:31:59;131.75;;;95.38;;
59458;SDS011;45269;43.568;22.244;2022-12-29T00:34:42;180.48;;;127.28;;
59458;SDS011;45269;43.568;22.244;2022-12-29T00:37:26;183.30;;;128.93;;
59458;SDS011;45269;43.568;22.244;2022-12-29T00:40:12;176.80;;;124.13;;
59458;SDS011;45269;43.568;22.244;2022-12-29T00:42:56;161.85;;;116.63;;
59458;SDS011;45269;43.568;22.244;2022-12-29T00:45:40;174.77;;;125.95;;
59458;SDS011;45269;43.568;22.244;2022-12-29T00:48:06;198.48;;;138.98;;
59458;SDS011;45269;43.568;22.244;2022-12-29T00:50:31;229.90;;;160.27;;
59458;SDS011;45269;43.568;22.244;2022-12-29T00:52:56;202.80;;;141.88;;
59458;SDS011;45269;43.568;22.244;2022-12-29T00:55:22;188.07;;;130.20;;
59458;SDS011;45269;43.568;22.244;2022-12-29T00:57:47;184.70;;;132.15;;
59458;SDS011;45269;43.568;22.244;2022-12-29T01:00:12;200.68;;;140.32;;
59458;SDS011;45269;43.568;22.244;2022-12-29T01:02:38;163.75;;;114.38;;
59458;SDS011;45269;43.568;22.244;2022-12-29T01:05:03;151.63;;;106.13;;
59458;SDS011;45269;43.568;22.244;2022-12-29T01:07:28;153.60;;;107.88;;
59458;SDS011;45269;43.568;22.244;2022-12-29T01:09:54;140.13;;;97.28;;
59458;SDS011;45269;43.568;22.244;2022-12-29T01:12:39;117.03;;;82.55;;
59458;SDS011;45269;43.568;22.244;2022-12-29T01:15:12;95.53;;;65.93;;
59458;SDS011;45269;43.568;22.244;2022-12-29T01:17:39;97.32;;;67.57;;
59458;SDS011;45269;43.568;22.244;2022-12-29T01:20:04;81.60;;;56.40;;
59458;SDS011;45269;43.568;22.244;2022-12-29T01:22:29;80.60;;;55.50;;
59458;SDS011;45269;43.568;22.244;2022-12-29T01:24:55;93.82;;;73.55;;
59458;SDS011;45269;43.568;22.244;2022-12-29T01:27:20;115.30;;;86.07;;
59458;SDS011;45269;43.568;22.244;2022-12-29T01:29:45;121.03;;;87.75;;
59458;SDS011;45269;43.568;22.244;2022-12-29T01:32:11;150.02;;;102.57;;
59458;SDS011;45269;43.568;22.244;2022-12-29T01:34:36;261.67;;;184.82;;
59458;SDS011;45269;43.568;22.244;2022-12-29T01:37:01;154.55;;;108.80;;
59458;SDS011;45269;43.568;22.244;2022-12-29T01:39:26;168.43;;;118.65;;
59458;SDS011;45269;43.568;22.244;2022-12-29T01:41:52;172.40;;;121.95;;
59458;SDS011;45269;43.568;22.244;2022-12-29T01:47:01;166.80;;;113.60;;
59458;SDS011;45269;43.568;22.244;2022-12-29T01:49:26;160.63;;;112.47;;
59458;SDS011;45269;43.568;22.244;2022-12-29T01:51:59;173.60;;;116.65;;
59458;SDS011;45269;43.568;22.244;2022-12-29T01:56:52;122.30;;;88.53;;
59458;SDS011;45269;43.568;22.244;2022-12-29T01:59:19;107.95;;;78.03;;
59458;SDS011;45269;43.568;22.244;2022-12-29T02:01:47;108.22;;;80.57;;
59458;SDS011;45269;43.568;22.244;2022-12-29T02:04:12;122.75;;;89.72;;
59458;SDS011;45269;43.568;22.244;2022-12-29T02:06:41;142.93;;;102.75;;
59458;SDS011;45269;43.568;22.244;2022-12-29T02:09:08;118.10;;;82.53;;
59458;SDS011;45269;43.568;22.244;2022-12-29T02:11:34;70.05;;;49.03;;
59458;SDS011;45269;43.568;22.244;2022-12-29T02:14:00;69.45;;;48.88;;
59458;SDS011;45269;43.568;22.244;2022-12-29T02:34:16;35.97;;;28.17;;
59458;SDS011;45269;43.568;22.244;2022-12-29T02:36:53;42.30;;;32.17;;
59458;SDS011;45269;43.568;22.244;2022-12-29T02:39:25;51.75;;;37.53;;
59458;SDS011;45269;43.568;22.244;2022-12-29T02:44:29;60.42;;;45.63;;
59458;SDS011;45269;43.568;22.244;2022-12-29T02:49:27;57.55;;;41.00;;
59458;SDS011;45269;43.568;22.244;2022-12-29T02:54:26;48.22;;;35.03;;
59458;SDS011;45269;43.568;22.244;2022-12-29T02:57:14;34.38;;;27.85;;
59458;SDS011;45269;43.568;22.244;2022-12-29T02:59:41;43.65;;;33.53;;
59458;SDS011;45269;43.568;22.244;2022-12-29T03:04:46;125.88;;;89.55;;
59458;SDS011;45269;43.568;22.244;2022-12-29T03:07:19;96.40;;;68.88;;
59458;SDS011;45269;43.568;22.244;2022-12-29T03:09:57;85.18;;;61.38;;
59458;SDS011;45269;43.568;22.244;2022-12-29T03:12:29;83.15;;;59.15;;
59458;SDS011;45269;43.568;22.244;2022-12-29T03:15:18;67.13;;;49.67;;
59458;SDS011;45269;43.568;22.244;2022-12-29T03:18:05;77.72;;;52.83;;
59458;SDS011;45269;43.568;22.244;2022-12-29T03:20:32;68.85;;;50.50;;
59458;SDS011;45269;43.568;22.244;2022-12-29T03:22:58;68.00;;;51.55;;
59458;SDS011;45269;43.568;22.244;2022-12-29T03:25:30;55.40;;;41.80;;
59458;SDS011;45269;43.568;22.244;2022-12-29T03:27:57;48.80;;;35.22;;
59458;SDS011;45269;43.568;22.244;2022-12-29T03:30:23;54.67;;;40.88;;
59458;SDS011;45269;43.568;22.244;2022-12-29T03:32:54;91.25;;;63.47;;
59458;SDS011;45269;43.568;22.244;2022-12-29T03:35:20;105.18;;;71.32;;
59458;SDS011;45269;43.568;22.244;2022-12-29T03:37:52;83.13;;;55.97;;
59458;SDS011;45269;43.568;22.244;2022-12-29T03:40:20;116.53;;;76.70;;
59458;SDS011;45269;43.568;22.244;2022-12-29T03:42:46;75.95;;;53.65;;
59458;SDS011;45269;43.568;22.244;2022-12-29T03:45:12;68.00;;;48.90;;
59458;SDS011;45269;43.568;22.244;2022-12-29T03:47:37;83.35;;;57.08;;
59458;SDS011;45269;43.568;22.244;2022-12-29T03:50:02;74.18;;;52.13;;
59458;SDS011;45269;43.568;22.244;2022-12-29T03:52:28;70.43;;;49.50;;
59458;SDS011;45269;43.568;22.244;2022-12-29T03:54:53;65.18;;;48.60;;
59458;SDS011;45269;43.568;22.244;2022-12-29T03:57:18;60.00;;;43.80;;
59458;SDS011;45269;43.568;22.244;2022-12-29T03:59:43;71.78;;;51.83;;
59458;SDS011;45269;43.568;22.244;2022-12-29T04:02:09;64.80;;;48.85;;
59458;SDS011;45269;43.568;22.244;2022-12-29T04:04:34;65.05;;;47.28;;
59458;SDS011;45269;43.568;22.244;2022-12-29T04:06:59;54.10;;;41.25;;
59458;SDS011;45269;43.568;22.244;2022-12-29T04:09:25;67.65;;;51.97;;
59458;SDS011;45269;43.568;22.244;2022-12-29T04:11:50;56.15;;;45.33;;
59458;SDS011;45269;43.568;22.244;2022-12-29T04:14:15;62.70;;;49.60;;
59458;SDS011;45269;43.568;22.244;2022-12-29T04:16:41;47.72;;;37.63;;
59458;SDS011;45269;43.568;22.244;2022-12-29T04:19:06;46.92;;;35.92;;
59458;SDS011;45269;43.568;22.244;2022-12-29T04:21:32;44.38;;;34.13;;
59458;SDS011;45269;43.568;22.244;2022-12-29T04:23:57;39.95;;;31.20;;
59458;SDS011;45269;43.568;22.244;2022-12-29T04:26:23;29.50;;;25.90;;
59458;SDS011;45269;43.568;22.244;2022-12-29T04:28:48;36.42;;;26.90;;
59458;SDS011;45269;43.568;22.244;2022-12-29T04:31:13;37.83;;;29.33;;
59458;SDS011;45269;43.568;22.244;2022-12-29T04:33:39;45.10;;;35.65;;
59458;SDS011;45269;43.568;22.244;2022-12-29T04:36:04;32.90;;;25.25;;
59458;SDS011;45269;43.568;22.244;2022-12-29T04:38:30;33.55;;;25.05;;
59458;SDS011;45269;43.568;22.244;2022-12-29T04:40:55;27.35;;;21.45;;
59458;SDS011;45269;43.568;22.244;2022-12-29T04:43:23;32.08;;;25.05;;
59458;SDS011;45269;43.568;22.244;2022-12-29T04:45:49;29.60;;;24.38;;
59458;SDS011;45269;43.568;22.244;2022-12-29T04:48:14;37.60;;;28.48;;
59458;SDS011;45269;43.568;22.244;2022-12-29T04:50:40;46.72;;;37.42;;
59458;SDS011;45269;43.568;22.244;2022-12-29T04:53:05;58.00;;;43.42;;
59458;SDS011;45269;43.568;22.244;2022-12-29T04:55:30;72.60;;;53.28;;
59458;SDS011;45269;43.568;22.244;2022-12-29T04:57:56;75.05;;;53.95;;
59458;SDS011;45269;43.568;22.244;2022-12-29T05:00:21;88.50;;;63.65;;
59458;SDS011;45269;43.568;22.244;2022-12-29T05:02:47;83.10;;;61.58;;
59458;SDS011;45269;43.568;22.244;2022-12-29T05:05:12;81.75;;;58.95;;
59458;SDS011;45269;43.568;22.244;2022-12-29T05:07:37;63.58;;;45.88;;
59458;SDS011;45269;43.568;22.244;2022-12-29T05:10:03;61.63;;;45.70;;
59458;SDS011;45269;43.568;22.244;2022-12-29T05:12:32;70.53;;;51.60;;
59458;SDS011;45269;43.568;22.244;2022-12-29T05:14:57;107.72;;;84.40;;
59458;SDS011;45269;43.568;22.244;2022-12-29T05:20:25;98.80;;;75.32;;
59458;SDS011;45269;43.568;22.244;2022-12-29T05:22:50;103.13;;;81.38;;
59458;SDS011;45269;43.568;22.244;2022-12-29T05:25:15;64.30;;;51.22;;
59458;SDS011;45269;43.568;22.244;2022-12-29T05:27:41;41.35;;;33.20;;
59458;SDS011;45269;43.568;22.244;2022-12-29T05:30:06;32.63;;;27.58;;
59458;SDS011;45269;43.568;22.244;2022-12-29T05:32:31;32.38;;;27.33;;
59458;SDS011;45269;43.568;22.244;2022-12-29T05:34:57;41.42;;;34.30;;
59458;SDS011;45269;43.568;22.244;2022-12-29T05:37:22;30.45;;;26.45;;
59458;SDS011;45269;43.568;22.244;2022-12-29T05:39:47;52.38;;;42.95;;
59458;SDS011;45269;43.568;22.244;2022-12-29T05:42:13;54.78;;;44.88;;
59458;SDS011;45269;43.568;22.244;2022-12-29T05:44:38;105.03;;;77.05;;
59458;SDS011;45269;43.568;22.244;2022-12-29T05:47:03;85.82;;;62.97;;
59458;SDS011;45269;43.568;22.244;2022-12-29T05:49:29;69.78;;;50.33;;
59458;SDS011;45269;43.568;22.244;2022-12-29T05:54:57;73.00;;;49.97;;
59458;SDS011;45269;43.568;22.244;2022-12-29T05:57:22;73.32;;;55.35;;
59458;SDS011;45269;43.568;22.244;2022-12-29T05:59:47;61.90;;;44.78;;
59458;SDS011;45269;43.568;22.244;2022-12-29T06:02:13;94.03;;;63.83;;
59458;SDS011;45269;43.568;22.244;2022-12-29T06:04:38;102.78;;;75.47;;
59458;SDS011;45269;43.568;22.244;2022-12-29T06:07:03;102.68;;;73.35;;
59458;SDS011;45269;43.568;22.244;2022-12-29T06:09:28;102.22;;;75.93;;
59458;SDS011;45269;43.568;22.244;2022-12-29T06:11:54;100.93;;;77.20;;
59458;SDS011;45269;43.568;22.244;2022-12-29T06:14:19;94.60;;;71.07;;
59458;SDS011;45269;43.568;22.244;2022-12-29T06:16:45;100.22;;;75.38;;
59458;SDS011;45269;43.568;22.244;2022-12-29T06:19:10;71.95;;;58.60;;
59458;SDS011;45269;43.568;22.244;2022-12-29T06:21:35;64.07;;;54.15;;
59458;SDS011;45269;43.568;22.244;2022-12-29T06:24:02;474.40;;;327.08;;
59458;SDS011;45269;43.568;22.244;2022-12-29T06:26:27;265.38;;;183.40;;
59458;SDS011;45269;43.568;22.244;2022-12-29T06:28:52;140.18;;;112.28;;
59458;SDS011;45269;43.568;22.244;2022-12-29T06:31:18;119.88;;;96.43;;
59458;SDS011;45269;43.568;22.244;2022-12-29T06:33:43;126.20;;;104.75;;
59458;SDS011;45269;43.568;22.244;2022-12-29T06:36:08;116.20;;;97.90;;
59458;SDS011;45269;43.568;22.244;2022-12-29T06:38:34;114.50;;;97.85;;
59458;SDS011;45269;43.568;22.244;2022-12-29T06:41:00;155.15;;;127.60;;
59458;SDS011;45269;43.568;22.244;2022-12-29T06:43:25;227.85;;;165.90;;
59458;SDS011;45269;43.568;22.244;2022-12-29T06:45:50;402.15;;;260.38;;
59458;SDS011;45269;43.568;22.244;2022-12-29T06:48:16;368.88;;;249.13;;
59458;SDS011;45269;43.568;22.244;2022-12-29T06:50:41;347.73;;;228.05;;
59458;SDS011;45269;43.568;22.244;2022-12-29T06:53:06;448.35;;;285.77;;
59458;SDS011;45269;43.568;22.244;2022-12-29T06:55:32;612.63;;;440.38;;
59458;SDS011;45269;43.568;22.244;2022-12-29T06:57:57;366.45;;;245.40;;
59458;SDS011;45269;43.568;22.244;2022-12-29T07:00:23;205.55;;;148.13;;
59458;SDS011;45269;43.568;22.244;2022-12-29T07:02:48;134.18;;;93.07;;
59458;SDS011;45269;43.568;22.244;2022-12-29T07:05:14;90.10;;;67.95;;
59458;SDS011;45269;43.568;22.244;2022-12-29T07:07:39;139.18;;;106.95;;
59458;SDS011;45269;43.568;22.244;2022-12-29T07:10:04;138.90;;;104.93;;
59458;SDS011;45269;43.568;22.244;2022-12-29T07:12:30;138.77;;;103.55;;
59458;SDS011;45269;43.568;22.244;2022-12-29T07:14:55;121.38;;;96.03;;
59458;SDS011;45269;43.568;22.244;2022-12-29T07:17:20;137.57;;;105.47;;
59458;SDS011;45269;43.568;22.244;2022-12-29T07:19:45;145.90;;;113.80;;
59458;SDS011;45269;43.568;22.244;2022-12-29T07:22:11;237.20;;;164.88;;
59458;SDS011;45269;43.568;22.244;2022-12-29T07:24:36;638.10;;;370.33;;
59458;SDS011;45269;43.568;22.244;2022-12-29T07:27:01;324.23;;;206.93;;
59458;SDS011;45269;43.568;22.244;2022-12-29T07:29:27;200.10;;;145.00;;
59458;SDS011;45269;43.568;22.244;2022-12-29T07:31:52;249.95;;;176.70;;
59458;SDS011;45269;43.568;22.244;2022-12-29T07:34:17;240.57;;;185.02;;
59458;SDS011;45269;43.568;22.244;2022-12-29T07:36:43;183.50;;;151.45;;
59458;SDS011;45269;43.568;22.244;2022-12-29T07:39:08;291.52;;;215.65;;
59458;SDS011;45269;43.568;22.244;2022-12-29T07:41:33;201.57;;;159.68;;
59458;SDS011;45269;43.568;22.244;2022-12-29T07:43:59;284.73;;;214.20;;
59458;SDS011;45269;43.568;22.244;2022-12-29T07:46:24;199.75;;;150.80;;
59458;SDS011;45269;43.568;22.244;2022-12-29T07:48:50;172.82;;;136.93;;
59458;SDS011;45269;43.568;22.244;2022-12-29T07:51:15;150.32;;;122.30;;
59458;SDS011;45269;43.568;22.244;2022-12-29T07:53:40;164.10;;;132.45;;
59458;SDS011;45269;43.568;22.244;2022-12-29T07:56:06;180.98;;;144.45;;
59458;SDS011;45269;43.568;22.244;2022-12-29T07:58:31;174.10;;;132.75;;
59458;SDS011;45269;43.568;22.244;2022-12-29T08:00:56;221.88;;;159.95;;
59458;SDS011;45269;43.568;22.244;2022-12-29T08:03:22;185.05;;;141.00;;
59458;SDS011;45269;43.568;22.244;2022-12-29T08:05:48;299.83;;;218.40;;
59458;SDS011;45269;43.568;22.244;2022-12-29T08:08:14;217.23;;;164.57;;
59458;SDS011;45269;43.568;22.244;2022-12-29T08:10:39;234.05;;;187.68;;
59458;SDS011;45269;43.568;22.244;2022-12-29T08:13:04;213.50;;;172.15;;
59458;SDS011;45269;43.568;22.244;2022-12-29T08:15:30;224.20;;;180.68;;
59458;SDS011;45269;43.568;22.244;2022-12-29T08:17:55;205.30;;;164.90;;
59458;SDS011;45269;43.568;22.244;2022-12-29T08:20:20;216.80;;;177.27;;
59458;SDS011;45269;43.568;22.244;2022-12-29T08:22:46;191.63;;;153.63;;
59458;SDS011;45269;43.568;22.244;2022-12-29T08:25:11;185.27;;;142.52;;
59458;SDS011;45269;43.568;22.244;2022-12-29T08:27:36;204.88;;;165.90;;
59458;SDS011;45269;43.568;22.244;2022-12-29T08:30:02;173.25;;;143.38;;
59458;SDS011;45269;43.568;22.244;2022-12-29T08:32:28;157.63;;;126.70;;
59458;SDS011;45269;43.568;22.244;2022-12-29T08:34:53;144.88;;;115.93;;
59458;SDS011;45269;43.568;22.244;2022-12-29T08:37:18;149.25;;;120.45;;
59458;SDS011;45269;43.568;22.244;2022-12-29T08:39:44;198.18;;;149.20;;
59458;SDS011;45269;43.568;22.244;2022-12-29T08:42:09;194.23;;;157.65;;
59458;SDS011;45269;43.568;22.244;2022-12-29T08:44:34;197.48;;;160.98;;
59458;SDS011;45269;43.568;22.244;2022-12-29T08:47:00;178.48;;;138.63;;
59458;SDS011;45269;43.568;22.244;2022-12-29T08:49:25;201.43;;;142.65;;
59458;SDS011;45269;43.568;22.244;2022-12-29T08:51:50;139.45;;;103.38;;
59458;SDS011;45269;43.568;22.244;2022-12-29T08:54:16;140.07;;;103.30;;
59458;SDS011;45269;43.568;22.244;2022-12-29T08:56:41;85.68;;;73.47;;
59458;SDS011;45269;43.568;22.244;2022-12-29T08:59:06;122.97;;;88.78;;
59458;SDS011;45269;43.568;22.244;2022-12-29T09:01:31;207.48;;;112.78;;
59458;SDS011;45269;43.568;22.244;2022-12-29T09:03:58;186.10;;;122.97;;
59458;SDS011;45269;43.568;22.244;2022-12-29T09:06:23;127.45;;;67.50;;
59458;SDS011;45269;43.568;22.244;2022-12-29T09:08:49;65.15;;;51.75;;
59458;SDS011;45269;43.568;22.244;2022-12-29T09:11:21;86.40;;;75.90;;
59458;SDS011;45269;43.568;22.244;2022-12-29T09:13:47;64.28;;;52.55;;
59458;SDS011;45269;43.568;22.244;2022-12-29T09:16:12;65.18;;;57.75;;
59458;SDS011;45269;43.568;22.244;2022-12-29T09:18:37;67.60;;;54.50;;
59458;SDS011;45269;43.568;22.244;2022-12-29T09:21:04;79.70;;;64.38;;
59458;SDS011;45269;43.568;22.244;2022-12-29T09:23:29;74.85;;;60.20;;
59458;SDS011;45269;43.568;22.244;2022-12-29T09:25:55;76.78;;;58.47;;
59458;SDS011;45269;43.568;22.244;2022-12-29T09:28:21;97.63;;;80.97;;
59458;SDS011;45269;43.568;22.244;2022-12-29T09:30:46;133.32;;;103.20;;
59458;SDS011;45269;43.568;22.244;2022-12-29T09:33:12;114.60;;;86.32;;
59458;SDS011;45269;43.568;22.244;2022-12-29T09:35:37;115.45;;;90.53;;
59458;SDS011;45269;43.568;22.244;2022-12-29T09:38:05;114.03;;;87.50;;
59458;SDS011;45269;43.568;22.244;2022-12-29T09:40:31;111.57;;;90.65;;
59458;SDS011;45269;43.568;22.244;2022-12-29T09:45:36;122.30;;;93.32;;
59458;SDS011;45269;43.568;22.244;2022-12-29T09:48:06;98.40;;;83.30;;
59458;SDS011;45269;43.568;22.244;2022-12-29T09:50:36;95.07;;;84.00;;
59458;SDS011;45269;43.568;22.244;2022-12-29T09:53:38;112.13;;;89.22;;
59458;SDS011;45269;43.568;22.244;2022-12-29T09:55:55;106.97;;;87.10;;
59458;SDS011;45269;43.568;22.244;2022-12-29T10:03:32;124.55;;;104.63;;
59458;SDS011;45269;43.568;22.244;2022-12-29T10:24:05;129.85;;;111.55;;
59458;SDS011;45269;43.568;22.244;2022-12-29T10:26:35;199.73;;;156.43;;
59458;SDS011;45269;43.568;22.244;2022-12-29T10:31:33;131.30;;;104.05;;
59458;SDS011;45269;43.568;22.244;2022-12-29T10:34:01;267.42;;;174.32;;
59458;SDS011;45269;43.568;22.244;2022-12-29T10:36:35;229.50;;;182.23;;
59458;SDS011;45269;43.568;22.244;2022-12-29T10:42:26;198.75;;;147.15;;
59458;SDS011;45269;43.568;22.244;2022-12-29T10:44:31;315.15;;;251.70;;
59458;SDS011;45269;43.568;22.244;2022-12-29T10:46:59;231.57;;;194.57;;
59458;SDS011;45269;43.568;22.244;2022-12-29T10:49:26;251.68;;;216.98;;
59458;SDS011;45269;43.568;22.244;2022-12-29T10:51:54;101.78;;;87.75;;
59458;SDS011;45269;43.568;22.244;2022-12-29T10:54:26;48.08;;;41.83;;
59458;SDS011;45269;43.568;22.244;2022-12-29T10:56:54;17.40;;;15.40;;
59458;SDS011;45269;43.568;22.244;2022-12-29T10:59:25;27.13;;;20.98;;
59458;SDS011;45269;43.568;22.244;2022-12-29T11:06:42;19.42;;;17.35;;
59458;SDS011;45269;43.568;22.244;2022-12-29T11:09:09;19.95;;;16.75;;
59458;SDS011;45269;43.568;22.244;2022-12-29T11:11:36;16.23;;;14.52;;
59458;SDS011;45269;43.568;22.244;2022-12-29T11:16:36;16.45;;;13.32;;
59458;SDS011;45269;43.568;22.244;2022-12-29T11:19:02;22.10;;;16.05;;
59458;SDS011;45269;43.568;22.244;2022-12-29T11:21:34;23.45;;;16.40;;
59458;SDS011;45269;43.568;22.244;2022-12-29T11:24:05;47.53;;;31.42;;
59458;SDS011;45269;43.568;22.244;2022-12-29T11:26:31;16.55;;;13.82;;
59458;SDS011;45269;43.568;22.244;2022-12-29T11:29:12;421.55;;;258.13;;
59458;SDS011;45269;43.568;22.244;2022-12-29T11:31:51;29.92;;;22.80;;
59458;SDS011;45269;43.568;22.244;2022-12-29T11:36:46;22.92;;;19.98;;
59458;SDS011;45269;43.568;22.244;2022-12-29T11:42:12;22.13;;;16.33;;
59458;SDS011;45269;43.568;22.244;2022-12-29T11:44:42;10.77;;;9.65;;
59458;SDS011;45269;43.568;22.244;2022-12-29T11:47:12;15.07;;;11.88;;
59458;SDS011;45269;43.568;22.244;2022-12-29T11:49:38;12.18;;;11.07;;
59458;SDS011;45269;43.568;22.244;2022-12-29T11:52:03;15.00;;;13.48;;
59458;SDS011;45269;43.568;22.244;2022-12-29T11:54:29;13.77;;;12.32;;
59458;SDS011;45269;43.568;22.244;2022-12-29T11:56:56;17.60;;;13.27;;
59458;SDS011;45269;43.568;22.244;2022-12-29T11:59:34;14.95;;;12.73;;
59458;SDS011;45269;43.568;22.244;2022-12-29T12:02:17;19.35;;;14.95;;
59458;SDS011;45269;43.568;22.244;2022-12-29T12:04:46;17.30;;;12.70;;
59458;SDS011;45269;43.568;22.244;2022-12-29T12:09:49;14.65;;;12.15;;
59458;SDS011;45269;43.568;22.244;2022-12-29T12:12:23;25.50;;;20.00;;
59458;SDS011;45269;43.568;22.244;2022-12-29T12:14:51;28.85;;;25.17;;
59458;SDS011;45269;43.568;22.244;2022-12-29T12:17:33;35.15;;;27.17;;
59458;SDS011;45269;43.568;22.244;2022-12-29T12:24:55;19.37;;;16.33;;
59458;SDS011;45269;43.568;22.244;2022-12-29T12:27:23;22.90;;;20.52;;
59458;SDS011;45269;43.568;22.244;2022-12-29T12:29:52;21.95;;;17.15;;
59458;SDS011;45269;43.568;22.244;2022-12-29T12:35:15;33.55;;;26.20;;
59458;SDS011;45269;43.568;22.244;2022-12-29T12:40:32;16.63;;;14.75;;
59458;SDS011;45269;43.568;22.244;2022-12-29T12:43:06;26.58;;;19.13;;
59458;SDS011;45269;43.568;22.244;2022-12-29T12:45:46;28.42;;;19.10;;
59458;SDS011;45269;43.568;22.244;2022-12-29T12:50:44;26.30;;;17.17;;
59458;SDS011;45269;43.568;22.244;2022-12-29T12:53:15;23.20;;;18.10;;
59458;SDS011;45269;43.568;22.244;2022-12-29T13:06:12;34.27;;;23.63;;
59458;SDS011;45269;43.568;22.244;2022-12-29T13:21:18;20.00;;;14.63;;
59458;SDS011;45269;43.568;22.244;2022-12-29T13:23:55;33.67;;;22.77;;
59458;SDS011;45269;43.568;22.244;2022-12-29T13:26:27;26.38;;;18.73;;
59458;SDS011;45269;43.568;22.244;2022-12-29T13:28:55;25.77;;;17.98;;
59458;SDS011;45269;43.568;22.244;2022-12-29T13:31:33;21.70;;;15.23;;
59458;SDS011;45269;43.568;22.244;2022-12-29T13:34:05;19.73;;;15.45;;
59458;SDS011;45269;43.568;22.244;2022-12-29T13:36:40;71.07;;;50.00;;
59458;SDS011;45269;43.568;22.244;2022-12-29T13:41:38;33.73;;;30.17;;
59458;SDS011;45269;43.568;22.244;2022-12-29T13:44:04;40.75;;;36.40;;
59458;SDS011;45269;43.568;22.244;2022-12-29T13:46:33;33.45;;;28.48;;
59458;SDS011;45269;43.568;22.244;2022-12-29T13:49:00;39.65;;;31.90;;
59458;SDS011;45269;43.568;22.244;2022-12-29T13:51:27;49.65;;;38.80;;
59458;SDS011;45269;43.568;22.244;2022-12-29T13:56:46;25.90;;;21.20;;
59458;SDS011;45269;43.568;22.244;2022-12-29T14:04:23;25.77;;;19.77;;
59458;SDS011;45269;43.568;22.244;2022-12-29T14:12:31;52.83;;;41.83;;
59458;SDS011;45269;43.568;22.244;2022-12-29T14:15:13;74.70;;;42.63;;
59458;SDS011;45269;43.568;22.244;2022-12-29T14:17:40;83.75;;;51.25;;
59458;SDS011;45269;43.568;22.244;2022-12-29T14:20:15;94.05;;;57.67;;
59458;SDS011;45269;43.568;22.244;2022-12-29T14:22:54;105.43;;;65.70;;
59458;SDS011;45269;43.568;22.244;2022-12-29T14:27:54;128.38;;;91.22;;
59458;SDS011;45269;43.568;22.244;2022-12-29T14:33:10;125.00;;;105.65;;
59458;SDS011;45269;43.568;22.244;2022-12-29T14:35:41;81.88;;;69.68;;
59458;SDS011;45269;43.568;22.244;2022-12-29T14:38:12;112.80;;;87.88;;
59458;SDS011;45269;43.568;22.244;2022-12-29T14:40:39;93.47;;;66.20;;
59458;SDS011;45269;43.568;22.244;2022-12-29T14:43:05;83.43;;;68.60;;
59458;SDS011;45269;43.568;22.244;2022-12-29T14:45:37;89.40;;;73.95;;
59458;SDS011;45269;43.568;22.244;2022-12-29T14:50:49;139.68;;;116.60;;
59458;SDS011;45269;43.568;22.244;2022-12-29T14:55:59;160.93;;;123.45;;
59458;SDS011;45269;43.568;22.244;2022-12-29T15:00:50;147.07;;;113.22;;
59458;SDS011;45269;43.568;22.244;2022-12-29T15:03:36;166.80;;;129.13;;
59458;SDS011;45269;43.568;22.244;2022-12-29T15:06:04;199.70;;;147.35;;
59458;SDS011;45269;43.568;22.244;2022-12-29T15:08:33;154.18;;;112.43;;
59458;SDS011;45269;43.568;22.244;2022-12-29T15:11:03;112.65;;;86.95;;
59458;SDS011;45269;43.568;22.244;2022-12-29T15:13:34;119.50;;;92.85;;
59458;SDS011;45269;43.568;22.244;2022-12-29T15:16:00;106.43;;;85.20;;
59458;SDS011;45269;43.568;22.244;2022-12-29T15:18:26;90.15;;;73.22;;
59458;SDS011;45269;43.568;22.244;2022-12-29T15:21:11;126.05;;;94.75;;
59458;SDS011;45269;43.568;22.244;2022-12-29T15:23:37;171.98;;;128.95;;
59458;SDS011;45269;43.568;22.244;2022-12-29T15:28:36;138.82;;;107.53;;
59458;SDS011;45269;43.568;22.244;2022-12-29T15:31:03;111.22;;;85.28;;
59458;SDS011;45269;43.568;22.244;2022-12-29T15:33:28;99.55;;;73.90;;
59458;SDS011;45269;43.568;22.244;2022-12-29T15:35:55;114.55;;;94.65;;
59458;SDS011;45269;43.568;22.244;2022-12-29T15:38:24;129.18;;;111.53;;
59458;SDS011;45269;43.568;22.244;2022-12-29T15:41:00;145.23;;;121.90;;
59458;SDS011;45269;43.568;22.244;2022-12-29T15:43:49;165.80;;;142.02;;
59458;SDS011;45269;43.568;22.244;2022-12-29T15:46:16;199.23;;;160.43;;
59458;SDS011;45269;43.568;22.244;2022-12-29T15:48:41;216.15;;;173.02;;
59458;SDS011;45269;43.568;22.244;2022-12-29T15:53:41;274.98;;;217.85;;
59458;SDS011;45269;43.568;22.244;2022-12-29T15:56:07;316.85;;;246.85;;
59458;SDS011;45269;43.568;22.244;2022-12-29T15:58:39;241.35;;;181.82;;
59458;SDS011;45269;43.568;22.244;2022-12-29T16:01:04;246.50;;;190.70;;
59458;SDS011;45269;43.568;22.244;2022-12-29T16:03:37;180.80;;;136.00;;
59458;SDS011;45269;43.568;22.244;2022-12-29T16:06:07;145.00;;;105.18;;
59458;SDS011;45269;43.568;22.244;2022-12-29T16:08:34;116.30;;;87.35;;
59458;SDS011;45269;43.568;22.244;2022-12-29T16:11:02;78.60;;;62.13;;
59458;SDS011;45269;43.568;22.244;2022-12-29T16:15:58;68.38;;;51.80;;
59458;SDS011;45269;43.568;22.244;2022-12-29T16:18:26;79.32;;;64.25;;
59458;SDS011;45269;43.568;22.244;2022-12-29T16:20:52;122.32;;;88.57;;
59458;SDS011;45269;43.568;22.244;2022-12-29T16:23:19;102.38;;;69.72;;
59458;SDS011;45269;43.568;22.244;2022-12-29T16:25:45;87.05;;;62.65;;
59458;SDS011;45269;43.568;22.244;2022-12-29T16:28:17;131.95;;;87.57;;
59458;SDS011;45269;43.568;22.244;2022-12-29T16:30:43;142.32;;;107.03;;
59458;SDS011;45269;43.568;22.244;2022-12-29T16:35:52;40.50;;;35.70;;
59458;SDS011;45269;43.568;22.244;2022-12-29T16:38:18;40.25;;;35.72;;
59458;SDS011;45269;43.568;22.244;2022-12-29T16:43:21;74.05;;;61.67;;
59458;SDS011;45269;43.568;22.244;2022-12-29T16:50:41;85.32;;;72.25;;
59458;SDS011;45269;43.568;22.244;2022-12-29T16:53:20;57.58;;;48.30;;
59458;SDS011;45269;43.568;22.244;2022-12-29T16:55:49;125.30;;;97.03;;